Aline, OK (73716)

11:35 PM CST on February 12, 2016 (GMT -0600)
Shed Overlook | | Change Station
CLOSE
Current Station
Personal Weather Station
Location: Cleo Springs, OK
Elevation: 1289 ft
Nearby Weather Stations

Elev 1289 ft 36.41 °N, 98.44 °W | Updated 8 seconds ago

Overcast
Overcast
36.1 °F
Feels Like 36 °F
N
2.5
Wind Variable Wind from NE
Gusts 2.5 mph

Today
High -- | Low -- °F
--% Chance of Precip.
Yesterday
High -- | Low -- °F
Precip. -- in
Pressure 30.49 in
Visibility 10.0 miles
Clouds Few 2400 ft
Mostly Cloudy 4600 ft
Overcast 6000 ft
Windchill 36 °F
Dew Point 28 °F
Humidity 71%
Rainfall 0.00 in
Snow Depth Not available.
7:25 AM 6:11 PM
Waxing Crescent, 27% visible
METAR KAVK 130515Z AUTO 05010G16KT 10SM FEW024 BKN046 OVC060 01/M03 A3049 RMK AO2
Pressure 30.49 in
Visibility 10.0 miles
Clouds Few 2400 ft
Mostly Cloudy 4600 ft
Overcast 6000 ft
Windchill 36 °F
Dew Point 28 °F
Humidity 71%
Rainfall 0.00 in
Snow Depth Not available.
7:25 AM 6:11 PM
Waxing Crescent, 27% visible
METAR KAVK 130515Z AUTO 05010G16KT 10SM FEW024 BKN046 OVC060 01/M03 A3049 RMK AO2

10-Day Weather Forecast

Almanac

Astronomy

Feb. 12, 2016 Rise Set
Actual Time
Civil Twilight
Nautical Twilight
Astronomical Twilight
Moon
Length of Visible Light
Length of Day
Tomorrow will be .
, % of the Moon is Illuminated

Today's Extremes

State Highs State Lows

Community

WunderPhotos

Upload Photos

1,892,508 photos uploaded!

WunderBlog® & News

Nearby

Air Quality

  Air Quality AQ Index Pollutant
Not available.

Snow Depth

Station Depth Elevation

Earthquake Activity

City Distance Mag. Time & Date
Minimum magnitude displayed is 2.5.

Coastal Water Temperatures

Place Temperature

Stations

Nearby Weather Stations

Station Location Temp. Windchill Dew Point Humidity Wind Precip. Elev Updated Type
                   

Watches & Warnings

There are currently no watches in effect.